sensor_id;sensor_type;location;lat;lon;timestamp;P1;durP1;ratioP1;P2;durP2;ratioP2
21012;SDS011;10664;53.582;9.712;2022-09-01T00:01:03;0.95;;;0.90;;
21012;SDS011;10664;53.582;9.712;2022-09-01T00:03:32;1.00;;;1.00;;
21012;SDS011;10664;53.582;9.712;2022-09-01T00:05:59;1.65;;;1.20;;
21012;SDS011;10664;53.582;9.712;2022-09-01T00:08:24;1.17;;;1.08;;
21012;SDS011;10664;53.582;9.712;2022-09-01T00:10:50;0.90;;;0.90;;
21012;SDS011;10664;53.582;9.712;2022-09-01T00:13:16;0.90;;;0.90;;
21012;SDS011;10664;53.582;9.712;2022-09-01T00:15:42;1.00;;;1.00;;
21012;SDS011;10664;53.582;9.712;2022-09-01T00:18:08;0.90;;;0.90;;
21012;SDS011;10664;53.582;9.712;2022-09-01T00:20:34;0.88;;;0.88;;
21012;SDS011;10664;53.582;9.712;2022-09-01T00:23:00;1.00;;;0.90;;
21012;SDS011;10664;53.582;9.712;2022-09-01T00:25:27;0.88;;;0.88;;
21012;SDS011;10664;53.582;9.712;2022-09-01T00:27:53;0.70;;;0.70;;
21012;SDS011;10664;53.582;9.712;2022-09-01T00:30:23;0.95;;;0.95;;
21012;SDS011;10664;53.582;9.712;2022-09-01T00:32:49;0.82;;;0.82;;
21012;SDS011;10664;53.582;9.712;2022-09-01T00:35:16;0.82;;;0.82;;
21012;SDS011;10664;53.582;9.712;2022-09-01T00:37:42;1.30;;;1.20;;
21012;SDS011;10664;53.582;9.712;2022-09-01T00:40:09;0.80;;;0.80;;
21012;SDS011;10664;53.582;9.712;2022-09-01T00:42:37;1.08;;;0.98;;
21012;SDS011;10664;53.582;9.712;2022-09-01T00:45:04;1.10;;;1.00;;
21012;SDS011;10664;53.582;9.712;2022-09-01T00:47:30;1.73;;;1.00;;
21012;SDS011;10664;53.582;9.712;2022-09-01T00:49:56;1.00;;;0.90;;
21012;SDS011;10664;53.582;9.712;2022-09-01T00:52:30;0.70;;;0.70;;
21012;SDS011;10664;53.582;9.712;2022-09-01T00:54:58;0.85;;;0.85;;
21012;SDS011;10664;53.582;9.712;2022-09-01T00:57:25;1.10;;;1.00;;
21012;SDS011;10664;53.582;9.712;2022-09-01T00:59:57;0.75;;;0.75;;
21012;SDS011;10664;53.582;9.712;2022-09-01T01:02:24;0.93;;;0.90;;
21012;SDS011;10664;53.582;9.712;2022-09-01T01:04:50;1.13;;;1.10;;
21012;SDS011;10664;53.582;9.712;2022-09-01T01:07:17;0.90;;;0.90;;
21012;SDS011;10664;53.582;9.712;2022-09-01T01:09:44;1.38;;;0.90;;
21012;SDS011;10664;53.582;9.712;2022-09-01T01:12:11;1.10;;;1.10;;
21012;SDS011;10664;53.582;9.712;2022-09-01T01:14:38;1.10;;;1.00;;
21012;SDS011;10664;53.582;9.712;2022-09-01T01:17:05;0.80;;;0.80;;
21012;SDS011;10664;53.582;9.712;2022-09-01T01:19:41;0.70;;;0.70;;
21012;SDS011;10664;53.582;9.712;2022-09-01T01:25:32;1.13;;;1.02;;
21012;SDS011;10664;53.582;9.712;2022-09-01T01:28:05;0.90;;;0.90;;
21012;SDS011;10664;53.582;9.712;2022-09-01T01:30:32;0.90;;;0.90;;
21012;SDS011;10664;53.582;9.712;2022-09-01T01:32:59;1.00;;;1.00;;
21012;SDS011;10664;53.582;9.712;2022-09-01T01:35:25;1.27;;;1.17;;
21012;SDS011;10664;53.582;9.712;2022-09-01T01:37:52;1.00;;;1.00;;
21012;SDS011;10664;53.582;9.712;2022-09-01T01:40:19;0.93;;;0.93;;
21012;SDS011;10664;53.582;9.712;2022-09-01T01:42:48;1.05;;;1.05;;
21012;SDS011;10664;53.582;9.712;2022-09-01T01:45:14;1.15;;;1.10;;
21012;SDS011;10664;53.582;9.712;2022-09-01T01:47:42;0.95;;;0.95;;
21012;SDS011;10664;53.582;9.712;2022-09-01T01:50:10;1.50;;;1.40;;
21012;SDS011;10664;53.582;9.712;2022-09-01T01:52:36;0.90;;;0.90;;
21012;SDS011;10664;53.582;9.712;2022-09-01T01:55:02;1.52;;;1.08;;
21012;SDS011;10664;53.582;9.712;2022-09-01T01:57:34;0.90;;;0.90;;
21012;SDS011;10664;53.582;9.712;2022-09-01T02:00:01;0.90;;;0.90;;
21012;SDS011;10664;53.582;9.712;2022-09-01T02:02:27;1.20;;;1.10;;
21012;SDS011;10664;53.582;9.712;2022-09-01T02:04:53;0.90;;;0.90;;
21012;SDS011;10664;53.582;9.712;2022-09-01T02:07:19;1.05;;;0.95;;
21012;SDS011;10664;53.582;9.712;2022-09-01T02:09:45;0.90;;;0.90;;
21012;SDS011;10664;53.582;9.712;2022-09-01T02:12:12;1.20;;;1.10;;
21012;SDS011;10664;53.582;9.712;2022-09-01T02:14:38;1.17;;;1.17;;
21012;SDS011;10664;53.582;9.712;2022-09-01T02:17:04;1.00;;;0.90;;
21012;SDS011;10664;53.582;9.712;2022-09-01T02:19:31;0.95;;;0.90;;
21012;SDS011;10664;53.582;9.712;2022-09-01T02:22:06;1.10;;;1.00;;
21012;SDS011;10664;53.582;9.712;2022-09-01T02:24:34;1.23;;;1.13;;
21012;SDS011;10664;53.582;9.712;2022-09-01T02:27:00;1.00;;;1.00;;
21012;SDS011;10664;53.582;9.712;2022-09-01T02:29:27;1.13;;;1.13;;
21012;SDS011;10664;53.582;9.712;2022-09-01T02:31:53;0.98;;;0.98;;
21012;SDS011;10664;53.582;9.712;2022-09-01T02:34:21;1.02;;;1.02;;
21012;SDS011;10664;53.582;9.712;2022-09-01T02:36:48;1.05;;;1.05;;
21012;SDS011;10664;53.582;9.712;2022-09-01T02:39:16;1.15;;;1.05;;
21012;SDS011;10664;53.582;9.712;2022-09-01T02:41:42;1.00;;;1.00;;
21012;SDS011;10664;53.582;9.712;2022-09-01T02:44:09;1.25;;;1.15;;
21012;SDS011;10664;53.582;9.712;2022-09-01T02:46:39;1.17;;;1.17;;
21012;SDS011;10664;53.582;9.712;2022-09-01T02:49:09;1.30;;;1.20;;
21012;SDS011;10664;53.582;9.712;2022-09-01T02:51:40;1.25;;;1.15;;
21012;SDS011;10664;53.582;9.712;2022-09-01T02:54:06;1.02;;;1.02;;
21012;SDS011;10664;53.582;9.712;2022-09-01T02:56:32;1.25;;;1.00;;
21012;SDS011;10664;53.582;9.712;2022-09-01T02:58:58;1.20;;;1.10;;
21012;SDS011;10664;53.582;9.712;2022-09-01T03:01:27;1.13;;;1.02;;
21012;SDS011;10664;53.582;9.712;2022-09-01T03:03:54;1.20;;;1.10;;
21012;SDS011;10664;53.582;9.712;2022-09-01T03:06:21;1.20;;;1.10;;
21012;SDS011;10664;53.582;9.712;2022-09-01T03:08:48;1.55;;;1.33;;
21012;SDS011;10664;53.582;9.712;2022-09-01T03:11:14;1.40;;;1.30;;
21012;SDS011;10664;53.582;9.712;2022-09-01T03:13:40;1.40;;;1.30;;
21012;SDS011;10664;53.582;9.712;2022-09-01T03:16:07;1.48;;;1.38;;
21012;SDS011;10664;53.582;9.712;2022-09-01T03:18:34;1.27;;;1.17;;
21012;SDS011;10664;53.582;9.712;2022-09-01T03:21:00;1.25;;;1.15;;
21012;SDS011;10664;53.582;9.712;2022-09-01T03:23:27;1.30;;;1.20;;
21012;SDS011;10664;53.582;9.712;2022-09-01T03:25:54;1.40;;;1.30;;
21012;SDS011;10664;53.582;9.712;2022-09-01T03:28:20;1.30;;;1.20;;
21012;SDS011;10664;53.582;9.712;2022-09-01T03:30:47;1.40;;;1.30;;
21012;SDS011;10664;53.582;9.712;2022-09-01T03:33:14;1.45;;;1.10;;
21012;SDS011;10664;53.582;9.712;2022-09-01T03:35:41;1.10;;;1.10;;
21012;SDS011;10664;53.582;9.712;2022-09-01T03:38:07;1.13;;;1.10;;
21012;SDS011;10664;53.582;9.712;2022-09-01T03:40:34;1.30;;;1.20;;
21012;SDS011;10664;53.582;9.712;2022-09-01T03:43:01;1.50;;;1.40;;
21012;SDS011;10664;53.582;9.712;2022-09-01T03:45:27;1.40;;;1.30;;
21012;SDS011;10664;53.582;9.712;2022-09-01T03:47:54;1.27;;;1.17;;
21012;SDS011;10664;53.582;9.712;2022-09-01T03:50:22;1.40;;;1.30;;
21012;SDS011;10664;53.582;9.712;2022-09-01T03:52:50;1.92;;;1.20;;
21012;SDS011;10664;53.582;9.712;2022-09-01T03:55:18;1.30;;;1.20;;
21012;SDS011;10664;53.582;9.712;2022-09-01T03:57:50;1.40;;;1.30;;
21012;SDS011;10664;53.582;9.712;2022-09-01T04:00:18;1.35;;;1.17;;
21012;SDS011;10664;53.582;9.712;2022-09-01T04:02:50;1.30;;;1.20;;
21012;SDS011;10664;53.582;9.712;2022-09-01T04:05:19;1.30;;;1.20;;
21012;SDS011;10664;53.582;9.712;2022-09-01T04:07:46;1.35;;;1.25;;
21012;SDS011;10664;53.582;9.712;2022-09-01T04:10:14;1.33;;;1.23;;
21012;SDS011;10664;53.582;9.712;2022-09-01T04:12:41;1.52;;;1.40;;
21012;SDS011;10664;53.582;9.712;2022-09-01T04:15:07;1.33;;;1.23;;
21012;SDS011;10664;53.582;9.712;2022-09-01T04:17:34;1.60;;;1.50;;
21012;SDS011;10664;53.582;9.712;2022-09-01T04:20:18;1.42;;;1.30;;
21012;SDS011;10664;53.582;9.712;2022-09-01T04:22:46;1.50;;;1.20;;
21012;SDS011;10664;53.582;9.712;2022-09-01T04:25:14;1.48;;;1.38;;
21012;SDS011;10664;53.582;9.712;2022-09-01T04:27:40;1.52;;;1.42;;
21012;SDS011;10664;53.582;9.712;2022-09-01T04:30:08;1.40;;;1.30;;
21012;SDS011;10664;53.582;9.712;2022-09-01T04:32:34;1.35;;;1.25;;
21012;SDS011;10664;53.582;9.712;2022-09-01T04:35:01;1.50;;;1.40;;
21012;SDS011;10664;53.582;9.712;2022-09-01T04:37:27;1.55;;;1.30;;
21012;SDS011;10664;53.582;9.712;2022-09-01T04:39:55;1.52;;;1.42;;
21012;SDS011;10664;53.582;9.712;2022-09-01T04:42:21;1.45;;;1.30;;
21012;SDS011;10664;53.582;9.712;2022-09-01T04:44:49;1.25;;;1.15;;
21012;SDS011;10664;53.582;9.712;2022-09-01T04:47:15;1.50;;;1.40;;
21012;SDS011;10664;53.582;9.712;2022-09-01T04:49:43;1.50;;;1.40;;
21012;SDS011;10664;53.582;9.712;2022-09-01T04:52:11;1.63;;;1.45;;
21012;SDS011;10664;53.582;9.712;2022-09-01T04:54:37;2.22;;;1.52;;
21012;SDS011;10664;53.582;9.712;2022-09-01T04:57:04;1.40;;;1.30;;
21012;SDS011;10664;53.582;9.712;2022-09-01T04:59:33;2.20;;;1.55;;
21012;SDS011;10664;53.582;9.712;2022-09-01T05:01:59;1.45;;;1.35;;
21012;SDS011;10664;53.582;9.712;2022-09-01T05:04:27;1.58;;;1.48;;
21012;SDS011;10664;53.582;9.712;2022-09-01T05:06:56;1.55;;;1.42;;
21012;SDS011;10664;53.582;9.712;2022-09-01T05:09:29;1.40;;;1.30;;
21012;SDS011;10664;53.582;9.712;2022-09-01T05:11:56;1.50;;;1.40;;
21012;SDS011;10664;53.582;9.712;2022-09-01T05:14:22;1.48;;;1.38;;
21012;SDS011;10664;53.582;9.712;2022-09-01T05:16:48;1.60;;;1.50;;
21012;SDS011;10664;53.582;9.712;2022-09-01T05:19:15;1.50;;;1.40;;
21012;SDS011;10664;53.582;9.712;2022-09-01T05:21:45;1.35;;;1.25;;
21012;SDS011;10664;53.582;9.712;2022-09-01T05:24:12;1.58;;;1.48;;
21012;SDS011;10664;53.582;9.712;2022-09-01T05:26:39;1.88;;;1.77;;
21012;SDS011;10664;53.582;9.712;2022-09-01T05:29:07;1.50;;;1.40;;
21012;SDS011;10664;53.582;9.712;2022-09-01T05:31:37;1.83;;;1.45;;
21012;SDS011;10664;53.582;9.712;2022-09-01T05:34:03;1.52;;;1.42;;
21012;SDS011;10664;53.582;9.712;2022-09-01T05:36:31;1.75;;;1.42;;
21012;SDS011;10664;53.582;9.712;2022-09-01T05:38:58;1.52;;;1.42;;
21012;SDS011;10664;53.582;9.712;2022-09-01T05:41:25;1.77;;;1.50;;
21012;SDS011;10664;53.582;9.712;2022-09-01T05:43:52;1.60;;;1.50;;
21012;SDS011;10664;53.582;9.712;2022-09-01T05:46:19;1.88;;;1.60;;
21012;SDS011;10664;53.582;9.712;2022-09-01T05:48:47;1.50;;;1.40;;
21012;SDS011;10664;53.582;9.712;2022-09-01T05:51:13;1.77;;;1.60;;
21012;SDS011;10664;53.582;9.712;2022-09-01T05:53:41;1.55;;;1.45;;
21012;SDS011;10664;53.582;9.712;2022-09-01T05:56:08;1.55;;;1.45;;
21012;SDS011;10664;53.582;9.712;2022-09-01T05:58:37;1.65;;;1.55;;
21012;SDS011;10664;53.582;9.712;2022-09-01T06:01:04;2.15;;;1.52;;
21012;SDS011;10664;53.582;9.712;2022-09-01T06:03:30;1.77;;;1.67;;
21012;SDS011;10664;53.582;9.712;2022-09-01T06:06:01;1.75;;;1.65;;
21012;SDS011;10664;53.582;9.712;2022-09-01T06:08:27;1.65;;;1.55;;
21012;SDS011;10664;53.582;9.712;2022-09-01T06:10:53;2.17;;;1.45;;
21012;SDS011;10664;53.582;9.712;2022-09-01T06:13:19;1.50;;;1.40;;
21012;SDS011;10664;53.582;9.712;2022-09-01T06:15:49;1.75;;;1.50;;
21012;SDS011;10664;53.582;9.712;2022-09-01T06:18:18;1.48;;;1.38;;
21012;SDS011;10664;53.582;9.712;2022-09-01T06:20:45;1.58;;;1.48;;
21012;SDS011;10664;53.582;9.712;2022-09-01T06:23:13;1.73;;;1.63;;
21012;SDS011;10664;53.582;9.712;2022-09-01T06:25:41;2.05;;;1.52;;
21012;SDS011;10664;53.582;9.712;2022-09-01T06:28:09;1.88;;;1.40;;
21012;SDS011;10664;53.582;9.712;2022-09-01T06:30:37;2.03;;;1.60;;
21012;SDS011;10664;53.582;9.712;2022-09-01T06:33:04;1.65;;;1.52;;
21012;SDS011;10664;53.582;9.712;2022-09-01T06:35:33;1.75;;;1.65;;
21012;SDS011;10664;53.582;9.712;2022-09-01T06:37:59;1.77;;;1.67;;
21012;SDS011;10664;53.582;9.712;2022-09-01T06:40:26;1.70;;;1.60;;
21012;SDS011;10664;53.582;9.712;2022-09-01T06:42:52;2.42;;;1.67;;
21012;SDS011;10664;53.582;9.712;2022-09-01T06:45:22;2.20;;;2.00;;
21012;SDS011;10664;53.582;9.712;2022-09-01T06:47:49;1.90;;;1.80;;
21012;SDS011;10664;53.582;9.712;2022-09-01T06:50:17;2.60;;;1.90;;
21012;SDS011;10664;53.582;9.712;2022-09-01T06:52:46;2.13;;;1.95;;
21012;SDS011;10664;53.582;9.712;2022-09-01T06:55:14;1.90;;;1.70;;
21012;SDS011;10664;53.582;9.712;2022-09-01T06:57:40;2.00;;;1.80;;
21012;SDS011;10664;53.582;9.712;2022-09-01T07:00:16;1.90;;;1.77;;
21012;SDS011;10664;53.582;9.712;2022-09-01T07:02:45;1.90;;;1.80;;
21012;SDS011;10664;53.582;9.712;2022-09-01T07:05:12;2.10;;;1.80;;
21012;SDS011;10664;53.582;9.712;2022-09-01T07:07:41;1.73;;;1.63;;
21012;SDS011;10664;53.582;9.712;2022-09-01T07:10:08;2.03;;;1.80;;
21012;SDS011;10664;53.582;9.712;2022-09-01T07:12:34;1.65;;;1.55;;
21012;SDS011;10664;53.582;9.712;2022-09-01T07:15:01;2.25;;;1.40;;
21012;SDS011;10664;53.582;9.712;2022-09-01T07:17:27;1.60;;;1.50;;
21012;SDS011;10664;53.582;9.712;2022-09-01T07:19:54;1.50;;;1.40;;
21012;SDS011;10664;53.582;9.712;2022-09-01T07:22:21;1.58;;;1.48;;
21012;SDS011;10664;53.582;9.712;2022-09-01T07:24:47;1.40;;;1.30;;
21012;SDS011;10664;53.582;9.712;2022-09-01T07:27:14;1.48;;;1.38;;
21012;SDS011;10664;53.582;9.712;2022-09-01T07:29:40;1.70;;;1.30;;
21012;SDS011;10664;53.582;9.712;2022-09-01T07:32:06;1.70;;;1.50;;
21012;SDS011;10664;53.582;9.712;2022-09-01T07:34:34;1.70;;;1.40;;
21012;SDS011;10664;53.582;9.712;2022-09-01T07:37:00;1.83;;;1.42;;
21012;SDS011;10664;53.582;9.712;2022-09-01T07:39:26;1.40;;;1.30;;
21012;SDS011;10664;53.582;9.712;2022-09-01T07:41:53;2.85;;;1.40;;
21012;SDS011;10664;53.582;9.712;2022-09-01T07:44:19;1.52;;;1.42;;
21012;SDS011;10664;53.582;9.712;2022-09-01T07:46:46;1.90;;;1.40;;
21012;SDS011;10664;53.582;9.712;2022-09-01T07:49:16;1.00;;;1.00;;
21012;SDS011;10664;53.582;9.712;2022-09-01T07:51:42;1.65;;;1.15;;
21012;SDS011;10664;53.582;9.712;2022-09-01T07:54:11;1.52;;;1.20;;
21012;SDS011;10664;53.582;9.712;2022-09-01T07:56:37;1.08;;;1.00;;
21012;SDS011;10664;53.582;9.712;2022-09-01T07:59:05;1.33;;;1.10;;
21012;SDS011;10664;53.582;9.712;2022-09-01T08:01:32;0.80;;;0.80;;
21012;SDS011;10664;53.582;9.712;2022-09-01T08:03:58;1.00;;;0.90;;
21012;SDS011;10664;53.582;9.712;2022-09-01T08:06:26;1.00;;;1.00;;
21012;SDS011;10664;53.582;9.712;2022-09-01T08:08:54;0.90;;;0.90;;
21012;SDS011;10664;53.582;9.712;2022-09-01T08:11:22;1.00;;;1.00;;
21012;SDS011;10664;53.582;9.712;2022-09-01T08:13:48;0.88;;;0.82;;
21012;SDS011;10664;53.582;9.712;2022-09-01T08:16:15;1.50;;;0.80;;
21012;SDS011;10664;53.582;9.712;2022-09-01T08:18:41;1.10;;;1.00;;
21012;SDS011;10664;53.582;9.712;2022-09-01T08:21:09;0.88;;;0.88;;
21012;SDS011;10664;53.582;9.712;2022-09-01T08:23:35;1.25;;;1.20;;
21012;SDS011;10664;53.582;9.712;2022-09-01T08:26:11;1.08;;;1.02;;
21012;SDS011;10664;53.582;9.712;2022-09-01T08:28:37;0.90;;;0.90;;
21012;SDS011;10664;53.582;9.712;2022-09-01T08:31:07;1.00;;;1.00;;
21012;SDS011;10664;53.582;9.712;2022-09-01T08:33:34;0.88;;;0.80;;
21012;SDS011;10664;53.582;9.712;2022-09-01T08:36:00;1.35;;;1.00;;
21012;SDS011;10664;53.582;9.712;2022-09-01T08:38:26;0.95;;;0.68;;
21012;SDS011;10664;53.582;9.712;2022-09-01T08:40:53;1.30;;;1.08;;
21012;SDS011;10664;53.582;9.712;2022-09-01T08:43:31;0.90;;;0.90;;
21012;SDS011;10664;53.582;9.712;2022-09-01T08:46:05;1.00;;;0.80;;
21012;SDS011;10664;53.582;9.712;2022-09-01T08:48:38;1.10;;;1.05;;
21012;SDS011;10664;53.582;9.712;2022-09-01T08:56:18;1.25;;;1.15;;
21012;SDS011;10664;53.582;9.712;2022-09-01T08:58:44;1.20;;;1.10;;
21012;SDS011;10664;53.582;9.712;2022-09-01T09:01:15;1.00;;;1.00;;
21012;SDS011;10664;53.582;9.712;2022-09-01T09:03:46;0.98;;;0.98;;
21012;SDS011;10664;53.582;9.712;2022-09-01T09:06:19;1.02;;;0.90;;
21012;SDS011;10664;53.582;9.712;2022-09-01T09:08:53;0.80;;;0.80;;
21012;SDS011;10664;53.582;9.712;2022-09-01T09:11:26;1.30;;;1.13;;
21012;SDS011;10664;53.582;9.712;2022-09-01T09:14:01;0.75;;;0.75;;
21012;SDS011;10664;53.582;9.712;2022-09-01T09:16:31;1.00;;;0.88;;
21012;SDS011;10664;53.582;9.712;2022-09-01T09:19:00;0.65;;;0.65;;
21012;SDS011;10664;53.582;9.712;2022-09-01T09:21:28;1.08;;;0.95;;
21012;SDS011;10664;53.582;9.712;2022-09-01T09:26:29;1.10;;;1.00;;
21012;SDS011;10664;53.582;9.712;2022-09-01T09:28:55;0.80;;;0.80;;
21012;SDS011;10664;53.582;9.712;2022-09-01T09:31:26;0.80;;;0.80;;
21012;SDS011;10664;53.582;9.712;2022-09-01T09:33:52;1.63;;;0.80;;
21012;SDS011;10664;53.582;9.712;2022-09-01T09:36:22;1.50;;;0.90;;
21012;SDS011;10664;53.582;9.712;2022-09-01T09:42:06;0.80;;;0.80;;
21012;SDS011;10664;53.582;9.712;2022-09-01T09:44:38;0.85;;;0.80;;
21012;SDS011;10664;53.582;9.712;2022-09-01T09:47:05;0.90;;;0.90;;
21012;SDS011;10664;53.582;9.712;2022-09-01T09:49:33;0.90;;;0.90;;
21012;SDS011;10664;53.582;9.712;2022-09-01T09:54:29;0.82;;;0.82;;
21012;SDS011;10664;53.582;9.712;2022-09-01T09:57:08;0.90;;;0.90;;
21012;SDS011;10664;53.582;9.712;2022-09-01T09:59:42;1.73;;;0.80;;
21012;SDS011;10664;53.582;9.712;2022-09-01T10:02:14;0.90;;;0.90;;
21012;SDS011;10664;53.582;9.712;2022-09-01T10:04:41;1.00;;;0.90;;
21012;SDS011;10664;53.582;9.712;2022-09-01T10:07:25;0.90;;;0.90;;
21012;SDS011;10664;53.582;9.712;2022-09-01T10:09:52;0.93;;;0.93;;
21012;SDS011;10664;53.582;9.712;2022-09-01T10:12:22;0.82;;;0.82;;
21012;SDS011;10664;53.582;9.712;2022-09-01T10:14:52;0.70;;;0.70;;
21012;SDS011;10664;53.582;9.712;2022-09-01T10:19:59;0.70;;;0.70;;
21012;SDS011;10664;53.582;9.712;2022-09-01T10:22:31;0.80;;;0.80;;
21012;SDS011;10664;53.582;9.712;2022-09-01T10:24:58;0.75;;;0.75;;
21012;SDS011;10664;53.582;9.712;2022-09-01T10:27:25;0.77;;;0.77;;
21012;SDS011;10664;53.582;9.712;2022-09-01T10:29:55;0.80;;;0.80;;
21012;SDS011;10664;53.582;9.712;2022-09-01T10:32:26;0.63;;;0.63;;
21012;SDS011;10664;53.582;9.712;2022-09-01T10:34:54;0.80;;;0.80;;
21012;SDS011;10664;53.582;9.712;2022-09-01T10:37:20;0.70;;;0.70;;
21012;SDS011;10664;53.582;9.712;2022-09-01T10:42:32;0.77;;;0.77;;
21012;SDS011;10664;53.582;9.712;2022-09-01T10:44:58;0.95;;;0.95;;
21012;SDS011;10664;53.582;9.712;2022-09-01T10:47:29;0.82;;;0.82;;
21012;SDS011;10664;53.582;9.712;2022-09-01T10:49:58;0.90;;;0.90;;
21012;SDS011;10664;53.582;9.712;2022-09-01T10:55:27;1.15;;;1.05;;
21012;SDS011;10664;53.582;9.712;2022-09-01T11:08:21;1.02;;;0.98;;
21012;SDS011;10664;53.582;9.712;2022-09-01T11:13:53;0.70;;;0.70;;
21012;SDS011;10664;53.582;9.712;2022-09-01T11:21:41;0.70;;;0.70;;
21012;SDS011;10664;53.582;9.712;2022-09-01T11:26:52;1.10;;;0.95;;
21012;SDS011;10664;53.582;9.712;2022-09-01T11:32:03;0.85;;;0.85;;
21012;SDS011;10664;53.582;9.712;2022-09-01T11:34:29;0.70;;;0.70;;
21012;SDS011;10664;53.582;9.712;2022-09-01T11:36:57;0.80;;;0.80;;
21012;SDS011;10664;53.582;9.712;2022-09-01T11:39:30;0.88;;;0.88;;
21012;SDS011;10664;53.582;9.712;2022-09-01T11:47:22;0.88;;;0.88;;
21012;SDS011;10664;53.582;9.712;2022-09-01T11:49:52;0.75;;;0.75;;
21012;SDS011;10664;53.582;9.712;2022-09-01T11:52:19;0.80;;;0.80;;
21012;SDS011;10664;53.582;9.712;2022-09-01T11:54:45;0.80;;;0.80;;
21012;SDS011;10664;53.582;9.712;2022-09-01T11:57:16;0.75;;;0.75;;
21012;SDS011;10664;53.582;9.712;2022-09-01T11:59:42;1.33;;;0.70;;
21012;SDS011;10664;53.582;9.712;2022-09-01T12:02:09;0.95;;;0.90;;
21012;SDS011;10664;53.582;9.712;2022-09-01T12:04:41;0.70;;;0.70;;
21012;SDS011;10664;53.582;9.712;2022-09-01T12:07:10;0.80;;;0.80;;
21012;SDS011;10664;53.582;9.712;2022-09-01T12:12:06;0.90;;;0.90;;
21012;SDS011;10664;53.582;9.712;2022-09-01T12:14:33;0.80;;;0.80;;
21012;SDS011;10664;53.582;9.712;2022-09-01T12:17:01;0.80;;;0.80;;
21012;SDS011;10664;53.582;9.712;2022-09-01T12:19:29;0.70;;;0.70;;
21012;SDS011;10664;53.582;9.712;2022-09-01T12:21:57;0.68;;;0.68;;
21012;SDS011;10664;53.582;9.712;2022-09-01T12:24:23;0.70;;;0.70;;
21012;SDS011;10664;53.582;9.712;2022-09-01T12:26:50;0.63;;;0.63;;
21012;SDS011;10664;53.582;9.712;2022-09-01T12:29:18;0.80;;;0.80;;
21012;SDS011;10664;53.582;9.712;2022-09-01T12:31:45;0.80;;;0.80;;
21012;SDS011;10664;53.582;9.712;2022-09-01T12:39:41;0.70;;;0.70;;
21012;SDS011;10664;53.582;9.712;2022-09-01T12:42:11;0.80;;;0.80;;
21012;SDS011;10664;53.582;9.712;2022-09-01T12:47:05;0.80;;;0.80;;
21012;SDS011;10664;53.582;9.712;2022-09-01T12:49:39;1.35;;;0.80;;
21012;SDS011;10664;53.582;9.712;2022-09-01T12:54:44;0.88;;;0.88;;
21012;SDS011;10664;53.582;9.712;2022-09-01T12:57:11;0.90;;;0.90;;
21012;SDS011;10664;53.582;9.712;2022-09-01T12:59:46;0.80;;;0.80;;
21012;SDS011;10664;53.582;9.712;2022-09-01T13:02:25;1.45;;;0.80;;
21012;SDS011;10664;53.582;9.712;2022-09-01T13:04:51;0.80;;;0.80;;
21012;SDS011;10664;53.582;9.712;2022-09-01T13:07:17;0.70;;;0.70;;
21012;SDS011;10664;53.582;9.712;2022-09-01T13:09:44;0.85;;;0.75;;
21012;SDS011;10664;53.582;9.712;2022-09-01T13:12:19;0.60;;;0.60;;
21012;SDS011;10664;53.582;9.712;2022-09-01T13:14:45;0.80;;;0.80;;
21012;SDS011;10664;53.582;9.712;2022-09-01T13:17:11;0.70;;;0.70;;
21012;SDS011;10664;53.582;9.712;2022-09-01T13:19:38;0.88;;;0.88;;
21012;SDS011;10664;53.582;9.712;2022-09-01T13:22:04;0.85;;;0.85;;
21012;SDS011;10664;53.582;9.712;2022-09-01T13:24:31;1.15;;;0.70;;
21012;SDS011;10664;53.582;9.712;2022-09-01T13:26:57;0.80;;;0.80;;
21012;SDS011;10664;53.582;9.712;2022-09-01T13:29:23;0.80;;;0.80;;
21012;SDS011;10664;53.582;9.712;2022-09-01T13:31:49;0.90;;;0.90;;
21012;SDS011;10664;53.582;9.712;2022-09-01T13:34:15;0.85;;;0.85;;
21012;SDS011;10664;53.582;9.712;2022-09-01T13:36:41;0.70;;;0.70;;
21012;SDS011;10664;53.582;9.712;2022-09-01T13:39:07;0.63;;;0.63;;
21012;SDS011;10664;53.582;9.712;2022-09-01T13:41:33;0.80;;;0.80;;
21012;SDS011;10664;53.582;9.712;2022-09-01T13:43:59;0.88;;;0.70;;
21012;SDS011;10664;53.582;9.712;2022-09-01T13:46:25;0.75;;;0.75;;
21012;SDS011;10664;53.582;9.712;2022-09-01T13:48:51;0.93;;;0.90;;
21012;SDS011;10664;53.582;9.712;2022-09-01T13:51:23;1.10;;;0.98;;
21012;SDS011;10664;53.582;9.712;2022-09-01T13:53:50;1.67;;;0.90;;
21012;SDS011;10664;53.582;9.712;2022-09-01T13:56:16;0.82;;;0.82;;
21012;SDS011;10664;53.582;9.712;2022-09-01T13:58:42;0.80;;;0.80;;
21012;SDS011;10664;53.582;9.712;2022-09-01T14:01:08;1.00;;;0.90;;
21012;SDS011;10664;53.582;9.712;2022-09-01T14:03:34;1.00;;;0.85;;
21012;SDS011;10664;53.582;9.712;2022-09-01T14:06:00;0.70;;;0.70;;
21012;SDS011;10664;53.582;9.712;2022-09-01T14:08:26;0.80;;;0.80;;
21012;SDS011;10664;53.582;9.712;2022-09-01T14:10:52;0.75;;;0.75;;
21012;SDS011;10664;53.582;9.712;2022-09-01T14:13:19;1.10;;;1.10;;
21012;SDS011;10664;53.582;9.712;2022-09-01T14:15:45;0.98;;;0.98;;
21012;SDS011;10664;53.582;9.712;2022-09-01T14:18:12;0.90;;;0.90;;
21012;SDS011;10664;53.582;9.712;2022-09-01T14:20:39;0.90;;;0.90;;
21012;SDS011;10664;53.582;9.712;2022-09-01T14:23:07;0.75;;;0.75;;
21012;SDS011;10664;53.582;9.712;2022-09-01T14:25:35;0.85;;;0.85;;
21012;SDS011;10664;53.582;9.712;2022-09-01T14:28:02;0.80;;;0.80;;
21012;SDS011;10664;53.582;9.712;2022-09-01T14:30:29;1.10;;;0.90;;
21012;SDS011;10664;53.582;9.712;2022-09-01T14:32:55;0.85;;;0.85;;
21012;SDS011;10664;53.582;9.712;2022-09-01T14:35:23;0.90;;;0.90;;
21012;SDS011;10664;53.582;9.712;2022-09-01T14:37:50;0.88;;;0.85;;
21012;SDS011;10664;53.582;9.712;2022-09-01T14:40:17;0.90;;;0.90;;
21012;SDS011;10664;53.582;9.712;2022-09-01T14:42:45;1.00;;;0.90;;
21012;SDS011;10664;53.582;9.712;2022-09-01T14:45:13;0.88;;;0.88;;
21012;SDS011;10664;53.582;9.712;2022-09-01T14:47:40;0.80;;;0.80;;
21012;SDS011;10664;53.582;9.712;2022-09-01T14:50:08;1.02;;;1.00;;
21012;SDS011;10664;53.582;9.712;2022-09-01T14:52:34;0.80;;;0.80;;
21012;SDS011;10664;53.582;9.712;2022-09-01T14:55:01;0.90;;;0.90;;
21012;SDS011;10664;53.582;9.712;2022-09-01T14:57:27;1.73;;;0.70;;
21012;SDS011;10664;53.582;9.712;2022-09-01T14:59:52;0.70;;;0.70;;
21012;SDS011;10664;53.582;9.712;2022-09-01T15:02:18;0.80;;;0.80;;
21012;SDS011;10664;53.582;9.712;2022-09-01T15:04:45;0.82;;;0.82;;
21012;SDS011;10664;53.582;9.712;2022-09-01T15:07:12;0.85;;;0.85;;
21012;SDS011;10664;53.582;9.712;2022-09-01T15:09:38;0.70;;;0.70;;
21012;SDS011;10664;53.582;9.712;2022-09-01T15:12:04;0.80;;;0.80;;
21012;SDS011;10664;53.582;9.712;2022-09-01T15:14:32;0.80;;;0.80;;
21012;SDS011;10664;53.582;9.712;2022-09-01T15:16:58;0.95;;;0.70;;
21012;SDS011;10664;53.582;9.712;2022-09-01T15:19:24;0.80;;;0.80;;
21012;SDS011;10664;53.582;9.712;2022-09-01T15:21:50;0.70;;;0.70;;
21012;SDS011;10664;53.582;9.712;2022-09-01T15:24:16;1.00;;;0.90;;
21012;SDS011;10664;53.582;9.712;2022-09-01T15:26:43;0.90;;;0.90;;
21012;SDS011;10664;53.582;9.712;2022-09-01T15:29:11;0.70;;;0.70;;
21012;SDS011;10664;53.582;9.712;2022-09-01T15:31:39;0.80;;;0.80;;
21012;SDS011;10664;53.582;9.712;2022-09-01T15:34:05;0.80;;;0.80;;
21012;SDS011;10664;53.582;9.712;2022-09-01T15:36:33;0.63;;;0.63;;
21012;SDS011;10664;53.582;9.712;2022-09-01T15:39:00;0.95;;;0.95;;
21012;SDS011;10664;53.582;9.712;2022-09-01T15:41:27;1.10;;;1.00;;
21012;SDS011;10664;53.582;9.712;2022-09-01T15:43:55;0.93;;;0.93;;
21012;SDS011;10664;53.582;9.712;2022-09-01T15:46:21;0.77;;;0.70;;
21012;SDS011;10664;53.582;9.712;2022-09-01T15:48:47;0.80;;;0.80;;
21012;SDS011;10664;53.582;9.712;2022-09-01T15:53:46;1.13;;;0.85;;
21012;SDS011;10664;53.582;9.712;2022-09-01T15:56:13;0.70;;;0.70;;
21012;SDS011;10664;53.582;9.712;2022-09-01T15:58:42;1.20;;;0.73;;
21012;SDS011;10664;53.582;9.712;2022-09-01T16:01:08;0.90;;;0.77;;